N31B KSEZ-KLAS
Flight info
| Callsign | N31B |
|---|---|
| Flight time | N/A |
| Altitude | 36000 |
| Route | PGS ISHEE2 |
| Aircraft | E50P/L-SBDFGRWY/LB2 |
Departure
| Time | 2026-04-22 17:36 |
|---|---|
| Airport | Sedona Airport (KSEZ) |
Arrival
| Time | N/A |
|---|---|
| Airport | Harry Reid International Airport (KLAS) |
| Time | Latitude | Longitude | Altitude | Speed | Heading |
|---|---|---|---|---|---|
| 2026-04-22 17:23 | 34.84985 | -111.78889 | 4790 ft | 0 kts | 221° |
| 2026-04-22 17:31 | 34.84977 | -111.78895 | 4789 ft | 3 kts | 188° |
| 2026-04-22 17:31 | 34.84927 | -111.78914 | 4786 ft | 8 kts | 176° |
| 2026-04-22 17:31 | 34.84924 | -111.78880 | 4786 ft | 7 kts | 46° |
| 2026-04-22 17:31 | 34.84984 | -111.78805 | 4790 ft | 17 kts | 49° |
| 2026-04-22 17:32 | 34.85050 | -111.78720 | 4797 ft | 10 kts | 40° |
| 2026-04-22 17:32 | 34.85104 | -111.78657 | 4803 ft | 12 kts | 46° |
| 2026-04-22 17:32 | 34.85149 | -111.78599 | 4817 ft | 7 kts | 47° |
| 2026-04-22 17:32 | 34.85191 | -111.78547 | 4813 ft | 12 kts | 44° |
| 2026-04-22 17:33 | 34.85232 | -111.78497 | 4821 ft | 11 kts | 46° |
| 2026-04-22 17:33 | 34.85271 | -111.78447 | 4827 ft | 6 kts | 45° |
| 2026-04-22 17:33 | 34.85321 | -111.78383 | 4834 ft | 15 kts | 46° |
| 2026-04-22 17:33 | 34.85355 | -111.78308 | 4831 ft | 8 kts | 121° |
| 2026-04-22 17:34 | 34.85306 | -111.78287 | 4830 ft | 8 kts | 225° |
| 2026-04-22 17:34 | 34.85299 | -111.78297 | 4830 ft | 0 kts | 226° |
| 2026-04-22 17:35 | 34.85294 | -111.78302 | 4829 ft | 10 kts | 226° |
| 2026-04-22 17:35 | 34.85082 | -111.78565 | 4812 ft | 76 kts | 226° |
| 2026-04-22 17:35 | 34.84580 | -111.79177 | 4847 ft | 120 kts | 222° |
| 2026-04-22 17:35 | 34.83933 | -111.79977 | 5199 ft | 145 kts | 223° |
| 2026-04-22 17:36 | 34.83382 | -111.81020 | 5947 ft | 155 kts | 245° |
| 2026-04-22 17:36 | 34.83320 | -111.82362 | 6582 ft | 168 kts | 284° |
| 2026-04-22 17:36 | 34.83965 | -111.83596 | 7251 ft | 174 kts | 299° |
| 2026-04-22 17:36 | 34.84577 | -111.84875 | 7892 ft | 175 kts | 290° |
| 2026-04-22 17:37 | 34.85161 | -111.86159 | 8635 ft | 172 kts | 294° |
| 2026-04-22 17:37 | 34.85777 | -111.87419 | 9266 ft | 174 kts | 292° |
| 2026-04-22 17:37 | 34.86374 | -111.88693 | 9923 ft | 173 kts | 293° |
| 2026-04-22 17:37 | 34.86969 | -111.89958 | 10498 ft | 172 kts | 292° |
| 2026-04-22 17:38 | 34.87568 | -111.91233 | 11022 ft | 174 kts | 292° |
| 2026-04-22 17:38 | 34.87968 | -111.92082 | 11378 ft | 174 kts | 292° |
| 2026-04-22 17:38 | 34.88571 | -111.93368 | 11911 ft | 176 kts | 291° |
| 2026-04-22 17:38 | 34.89178 | -111.94663 | 12458 ft | 176 kts | 291° |
| 2026-04-22 17:39 | 34.89789 | -111.95960 | 13009 ft | 176 kts | 291° |
| 2026-04-22 17:39 | 34.90595 | -111.97678 | 13738 ft | 176 kts | 291° |
| 2026-04-22 17:39 | 34.91620 | -111.99868 | 14551 ft | 179 kts | 291° |
| 2026-04-22 17:40 | 34.92228 | -112.01164 | 15051 ft | 178 kts | 291° |
| 2026-04-22 17:40 | 34.92844 | -112.02476 | 15553 ft | 178 kts | 290° |
| 2026-04-22 17:40 | 34.93458 | -112.03790 | 16082 ft | 178 kts | 290° |
| 2026-04-22 17:40 | 34.94074 | -112.05102 | 16616 ft | 179 kts | 290° |
| 2026-04-22 17:41 | 34.94693 | -112.06430 | 17156 ft | 180 kts | 291° |
| 2026-04-22 17:41 | 34.95315 | -112.07755 | 17712 ft | 180 kts | 290° |
| 2026-04-22 17:41 | 34.95936 | -112.09085 | 18286 ft | 180 kts | 290° |
| 2026-04-22 17:41 | 34.96557 | -112.10413 | 18792 ft | 181 kts | 290° |
| 2026-04-22 17:42 | 34.97180 | -112.11748 | 19313 ft | 182 kts | 290° |
| 2026-04-22 17:42 | 34.97806 | -112.13087 | 19828 ft | 181 kts | 290° |
| 2026-04-22 17:42 | 34.98429 | -112.14424 | 20361 ft | 181 kts | 289° |
| 2026-04-22 17:42 | 34.99054 | -112.15762 | 20867 ft | 182 kts | 290° |
| 2026-04-22 17:43 | 34.99679 | -112.17099 | 21376 ft | 181 kts | 289° |
| 2026-04-22 17:43 | 35.00296 | -112.18418 | 21855 ft | 181 kts | 289° |
| 2026-04-22 17:43 | 35.00919 | -112.19765 | 22355 ft | 183 kts | 289° |
| 2026-04-22 17:43 | 35.01550 | -112.21117 | 22901 ft | 183 kts | 289° |
| 2026-04-22 17:44 | 35.02182 | -112.22475 | 23480 ft | 184 kts | 289° |
| 2026-04-22 17:44 | 35.02819 | -112.23839 | 23955 ft | 185 kts | 289° |
| 2026-04-22 17:44 | 35.03455 | -112.25208 | 24430 ft | 186 kts | 289° |
| 2026-04-22 17:44 | 35.04098 | -112.26589 | 24883 ft | 188 kts | 289° |
| 2026-04-22 17:45 | 35.04744 | -112.27978 | 25367 ft | 189 kts | 289° |
| 2026-04-22 17:45 | 35.05395 | -112.29380 | 25856 ft | 190 kts | 289° |
| 2026-04-22 17:45 | 35.06050 | -112.30791 | 26333 ft | 192 kts | 289° |
| 2026-04-22 17:45 | 35.06710 | -112.32210 | 26831 ft | 193 kts | 289° |
| 2026-04-22 17:46 | 35.07374 | -112.33639 | 27321 ft | 194 kts | 289° |
| 2026-04-22 17:46 | 35.08042 | -112.35078 | 27794 ft | 195 kts | 289° |
| 2026-04-22 17:46 | 35.08714 | -112.36529 | 28275 ft | 197 kts | 289° |
| 2026-04-22 17:46 | 35.09392 | -112.37990 | 28756 ft | 199 kts | 289° |
| 2026-04-22 17:47 | 35.10066 | -112.39447 | 29223 ft | 200 kts | 289° |
| 2026-04-22 17:47 | 35.10758 | -112.40938 | 29695 ft | 202 kts | 289° |
| 2026-04-22 17:47 | 35.11451 | -112.42436 | 30129 ft | 203 kts | 289° |
| 2026-04-22 17:47 | 35.12149 | -112.43942 | 30532 ft | 204 kts | 289° |
| 2026-04-22 17:48 | 35.12850 | -112.45457 | 30913 ft | 205 kts | 289° |
| 2026-04-22 17:48 | 35.13553 | -112.46977 | 31305 ft | 205 kts | 289° |
| 2026-04-22 17:48 | 35.14248 | -112.48474 | 31834 ft | 200 kts | 289° |
| 2026-04-22 17:48 | 35.14928 | -112.49946 | 32260 ft | 198 kts | 288° |
| 2026-04-22 17:49 | 35.15603 | -112.51412 | 32678 ft | 197 kts | 288° |
| 2026-04-22 17:49 | 35.16277 | -112.52869 | 33072 ft | 197 kts | 288° |
| 2026-04-22 17:49 | 35.16967 | -112.54385 | 33154 ft | 209 kts | 288° |
| 2026-04-22 17:49 | 35.17683 | -112.55923 | 33498 ft | 210 kts | 289° |
| 2026-04-22 17:50 | 35.18400 | -112.57471 | 33913 ft | 208 kts | 288° |
| 2026-04-22 17:50 | 35.19108 | -112.59007 | 34268 ft | 207 kts | 289° |
| 2026-04-22 17:50 | 35.19811 | -112.60535 | 34608 ft | 205 kts | 289° |
| 2026-04-22 17:50 | 35.20510 | -112.62051 | 34947 ft | 204 kts | 289° |
| 2026-04-22 17:51 | 35.21202 | -112.63557 | 35280 ft | 203 kts | 289° |
| 2026-04-22 17:51 | 35.21891 | -112.65053 | 35599 ft | 201 kts | 289° |
| 2026-04-22 17:51 | 35.22575 | -112.66543 | 35934 ft | 201 kts | 289° |
| 2026-04-22 17:51 | 35.23273 | -112.68074 | 35961 ft | 212 kts | 289° |
| 2026-04-22 17:52 | 35.24013 | -112.69689 | 35967 ft | 223 kts | 290° |
| 2026-04-22 17:52 | 35.24795 | -112.71389 | 35976 ft | 234 kts | 290° |
| 2026-04-22 17:52 | 35.25609 | -112.73163 | 35975 ft | 244 kts | 290° |
| 2026-04-22 17:52 | 35.26444 | -112.74980 | 35980 ft | 253 kts | 290° |
| 2026-04-22 17:53 | 35.27322 | -112.76894 | 35973 ft | 262 kts | 291° |
| 2026-04-22 17:53 | 35.28231 | -112.78877 | 35976 ft | 271 kts | 291° |
| 2026-04-22 17:53 | 35.29166 | -112.80917 | 35975 ft | 278 kts | 291° |
| 2026-04-22 17:53 | 35.30127 | -112.83017 | 35976 ft | 285 kts | 291° |
| 2026-04-22 17:54 | 35.31107 | -112.85158 | 35958 ft | 292 kts | 291° |
| 2026-04-22 17:54 | 35.32118 | -112.87374 | 35652 ft | 305 kts | 291° |
| 2026-04-22 17:54 | 35.33174 | -112.89693 | 35250 ft | 319 kts | 292° |
| 2026-04-22 17:54 | 35.34279 | -112.92110 | 34822 ft | 328 kts | 292° |
| 2026-04-22 17:55 | 35.35384 | -112.94512 | 34398 ft | 326 kts | 292° |
| 2026-04-22 17:55 | 35.36491 | -112.96936 | 33962 ft | 324 kts | 291° |
| 2026-04-22 17:55 | 35.37585 | -112.99344 | 33511 ft | 322 kts | 291° |
| 2026-04-22 17:55 | 35.38670 | -113.01729 | 33084 ft | 319 kts | 291° |
| 2026-04-22 17:56 | 35.39744 | -113.04088 | 32668 ft | 316 kts | 291° |
| 2026-04-22 17:56 | 35.40811 | -113.06432 | 32251 ft | 313 kts | 291° |